Time;durP1;ratioP1;P1;durP2;ratioP2;P2;SDS_P1;SDS_P2;PMS_P1;PMS_P2;Temp;Humidity;BMP_temperature;BMP_pressure;BME280_temperature;BME280_humidity;BME280_pressure;Samples;Min_cycle;Max_cycle;Signal;HPM_P1;HPM_P2
2022/12/26 00:01:12;;;;;;;19.93;10.20;;;9.90;91.40;;;;;;6142541;23;20291;-78
2022/12/26 00:03:40;;;;;;;18.50;10.83;;;9.90;91.40;;;;;;6147306;23;20168;-77
2022/12/26 00:06:15;;;;;;;23.87;11.27;;;9.90;91.40;;;;;;6147934;23;20179;-78
2022/12/26 00:08:44;;;;;;;20.00;11.23;;;9.90;91.40;;;;;;6145327;23;20255;-78
2022/12/26 00:11:12;;;;;;;19.83;10.40;;;9.90;91.60;;;;;;6145500;23;20747;-78
2022/12/26 00:13:41;;;;;;;21.80;10.87;;;9.90;91.90;;;;;;6146449;23;20178;-79
2022/12/26 00:16:12;;;;;;;22.73;11.43;;;9.90;91.80;;;;;;6144840;23;20208;-80
2022/12/26 00:18:41;;;;;;;18.03;10.10;;;9.90;91.80;;;;;;6151351;23;20196;-78
2022/12/26 00:21:12;;;;;;;21.17;11.03;;;9.90;91.90;;;;;;6148713;23;20645;-78
2022/12/26 00:23:42;;;;;;;24.87;13.40;;;9.90;91.90;;;;;;6149102;23;20464;-78
2022/12/26 00:26:13;;;;;;;19.03;11.67;;;9.90;92.20;;;;;;6150489;23;20157;-78
2022/12/26 00:28:42;;;;;;;19.53;11.37;;;9.90;92.20;;;;;;6151941;23;20179;-79
2022/12/26 00:31:12;;;;;;;18.10;10.27;;;9.90;92.30;;;;;;6149422;23;20169;-78
2022/12/26 00:33:41;;;;;;;24.40;11.33;;;9.90;92.20;;;;;;6152703;23;20252;-78
2022/12/26 00:36:12;;;;;;;22.50;12.87;;;9.80;92.30;;;;;;6147032;23;20934;-78
2022/12/26 00:38:43;;;;;;;16.87;10.50;;;9.80;92.50;;;;;;6152565;23;20172;-78
2022/12/26 00:41:12;;;;;;;17.00;10.47;;;9.80;92.50;;;;;;6150440;23;20217;-77
2022/12/26 00:43:41;;;;;;;22.10;11.40;;;9.80;92.60;;;;;;6149754;23;20176;-78
2022/12/26 00:46:10;;;;;;;18.83;11.17;;;9.80;92.60;;;;;;6147585;23;20177;-77
2022/12/26 00:48:38;;;;;;;22.65;12.93;;;9.70;92.60;;;;;;6150457;23;20383;-77
2022/12/26 00:51:07;;;;;;;21.90;12.23;;;9.70;92.60;;;;;;6144078;23;20172;-77
2022/12/26 00:53:35;;;;;;;20.67;12.13;;;9.70;92.80;;;;;;6142863;23;20235;-78
2022/12/26 00:56:05;;;;;;;19.50;10.63;;;9.70;92.80;;;;;;6144624;23;20197;-77
2022/12/26 00:58:34;;;;;;;23.90;11.63;;;9.70;92.90;;;;;;6145346;23;20172;-77
2022/12/26 01:01:07;;;;;;;17.00;10.03;;;9.60;92.90;;;;;;6144076;23;20192;-77
2022/12/26 01:03:35;;;;;;;18.57;9.67;;;9.60;92.90;;;;;;6145859;23;20184;-77
2022/12/26 01:06:04;;;;;;;20.03;11.20;;;9.60;92.90;;;;;;6145368;23;20176;-77
2022/12/26 01:08:33;;;;;;;24.77;12.83;;;9.50;92.70;;;;;;6151319;23;20176;-77
2022/12/26 01:11:06;;;;;;;22.87;12.80;;;9.50;92.70;;;;;;6148476;23;20208;-78
2022/12/26 01:13:35;;;;;;;24.47;15.03;;;9.50;92.80;;;;;;6149799;23;20391;-78
2022/12/26 01:16:05;;;;;;;33.23;18.57;;;9.50;92.80;;;;;;6145977;23;20520;-78
2022/12/26 01:18:34;;;;;;;25.93;14.97;;;9.40;92.90;;;;;;6146058;23;20530;-78
2022/12/26 01:21:05;;;;;;;25.87;12.03;;;9.40;92.90;;;;;;6148578;23;20173;-78
2022/12/26 01:23:33;;;;;;;24.97;12.47;;;9.40;92.90;;;;;;6145446;23;20165;-77
2022/12/26 01:26:02;;;;;;;27.90;13.98;;;9.30;92.80;;;;;;6143827;23;20457;-78
2022/12/26 01:28:48;;;;;;;25.20;13.47;;;9.30;92.80;;;;;;6144925;23;20168;-78
2022/12/26 01:31:17;;;;;;;27.03;15.27;;;9.30;92.90;;;;;;6146204;23;20168;-77
2022/12/26 01:33:46;;;;;;;34.33;21.10;;;9.30;92.80;;;;;;6144956;23;20555;-78
2022/12/26 01:36:15;;;;;;;40.67;23.37;;;9.30;92.80;;;;;;6142696;23;20204;-77
2022/12/26 01:38:43;;;;;;;57.75;31.70;;;9.20;92.70;;;;;;6144624;23;20395;-78
2022/12/26 01:41:19;;;;;;;72.10;34.60;;;9.20;92.70;;;;;;6143980;23;20268;-78
2022/12/26 01:43:54;;;;;;;53.13;27.03;;;9.20;92.60;;;;;;6144230;23;20160;-77
2022/12/26 01:46:27;;;;;;;82.23;41.50;;;9.10;92.40;;;;;;6144052;23;20165;-78
2022/12/26 01:48:59;;;;;;;66.47;36.40;;;9.10;92.30;;;;;;6142473;23;20167;-77
2022/12/26 01:51:33;;;;;;;52.63;30.58;;;9.10;92.30;;;;;;6145486;23;20410;-78
2022/12/26 01:54:05;;;;;;;52.83;26.63;;;9.00;92.20;;;;;;6143212;23;20647;-77
2022/12/26 01:56:54;;;;;;;64.83;32.80;;;9.00;92.20;;;;;;6144118;23;20291;-78
2022/12/26 01:59:26;;;;;;;75.23;37.73;;;8.90;92.10;;;;;;6143146;23;20266;-77
2022/12/26 02:01:55;;;;;;;72.40;38.70;;;8.80;92.10;;;;;;6143973;23;20157;-79
2022/12/26 02:07:19;;;;;;;64.73;34.00;;;8.80;92.10;;;;;;6145592;23;20157;-78
2022/12/26 02:09:48;;;;;;;31.03;18.27;;;8.70;92.10;;;;;;6141931;23;20169;-77
2022/12/26 02:12:21;;;;;;;42.73;21.17;;;8.70;92.10;;;;;;6145508;23;20168;-78
2022/12/26 02:15:11;;;;;;;35.10;19.47;;;8.70;92.10;;;;;;6144126;23;20164;-78
2022/12/26 02:17:40;;;;;;;48.70;29.20;;;8.60;92.10;;;;;;6144391;23;20415;-77
2022/12/26 02:20:18;;;;;;;58.90;34.20;;;8.60;92.20;;;;;;6145548;23;20642;-79
2022/12/26 02:23:27;;;;;;;57.80;32.17;;;8.60;92.20;;;;;;6150658;23;20157;-77
2022/12/26 02:26:25;;;;;;;37.13;20.67;;;8.60;92.20;;;;;;6148842;23;20169;-77
2022/12/26 02:29:23;;;;;;;33.03;17.73;;;8.60;92.10;;;;;;6085511;23;20180;-78
2022/12/26 02:32:00;;;;;;;31.80;17.83;;;8.60;92.10;;;;;;6152512;23;20211;-78
2022/12/26 02:34:35;;;;;;;27.47;15.57;;;8.60;92.00;;;;;;6152002;23;20184;-78
2022/12/26 02:37:22;;;;;;;35.53;17.83;;;8.60;91.90;;;;;;6152186;23;20188;-78
2022/12/26 02:40:08;;;;;;;36.80;19.07;;;8.60;91.80;;;;;;6148869;23;20785;-78
2022/12/26 02:42:47;;;;;;;24.98;15.32;;;8.60;91.70;;;;;;6151353;23;20453;-78
2022/12/26 02:48:17;;;;;;;24.93;12.70;;;8.50;91.60;;;;;;6149634;23;20236;-78
2022/12/26 03:14:07;;;;;;;18.17;9.13;;;8.60;91.80;;;;;;6150303;23;20173;-78
2022/12/26 03:19:25;;;;;;;17.27;9.20;;;8.60;91.70;;;;;;6151006;23;20203;-78
2022/12/26 03:21:57;;;;;;;15.27;8.03;;;8.60;91.70;;;;;;6150895;23;20161;-79
2022/12/26 03:26:38;;;;;;;14.07;8.50;;;8.60;91.70;;;;;;6144969;23;20219;-78
2022/12/26 03:27:14;;;;;;;15.20;8.13;;;8.70;91.60;;;;;;6152611;23;20161;-78
2022/12/26 03:32:28;;;;;;;15.43;9.13;;;8.60;91.50;;;;;;6150636;23;20157;-78
2022/12/26 03:34:56;;;;;;;17.02;10.27;;;8.60;91.50;;;;;;6145691;23;20437;-78
2022/12/26 03:37:46;;;;;;;15.63;9.03;;;8.70;91.70;;;;;;6147982;23;20196;-78
2022/12/26 04:20:48;;;;;;;20.73;9.67;;;8.30;90.60;;;;;;6153080;23;20165;-77
2022/12/26 04:46:19;;;;;;;15.40;8.03;;;8.30;90.80;;;;;;6151084;23;20251;-78
2022/12/26 04:51:41;;;;;;;11.93;6.87;;;8.30;90.80;;;;;;6065692;23;20190;-78
2022/12/26 04:54:09;;;;;;;13.27;6.80;;;8.30;90.70;;;;;;6150530;23;20168;-78
2022/12/26 04:56:37;;;;;;;17.38;9.25;;;8.30;90.70;;;;;;6148913;23;20393;-78
2022/12/26 04:59:06;;;;;;;13.20;7.33;;;8.30;90.70;;;;;;6152714;23;20192;-78
2022/12/26 05:10:00;;;;;;;14.07;8.57;;;8.30;90.50;;;;;;6147565;23;20855;-77
2022/12/26 05:12:28;;;;;;;12.80;7.47;;;8.30;90.70;;;;;;6150317;23;20172;-79
2022/12/26 05:14:57;;;;;;;17.77;8.67;;;8.20;90.60;;;;;;6149910;23;20172;-78
2022/12/26 05:28:55;;;;;;;20.27;8.73;;;8.20;90.50;;;;;;6116508;23;20684;-77
2022/12/26 05:31:24;;;;;;;14.43;7.97;;;8.20;90.40;;;;;;6149428;23;20172;-77
2022/12/26 05:34:06;;;;;;;17.27;8.82;;;8.20;90.40;;;;;;6145690;23;20856;-81
2022/12/26 05:36:38;;;;;;;14.77;7.63;;;8.20;90.40;;;;;;6148371;23;20164;-77
2022/12/26 05:39:08;;;;;;;17.03;8.90;;;8.20;90.20;;;;;;6149163;23;20208;-77
2022/12/26 05:41:37;;;;;;;14.70;8.60;;;8.20;90.20;;;;;;6147924;23;20177;-78
2022/12/26 05:44:05;;;;;;;16.07;8.57;;;8.20;90.10;;;;;;6150856;23;20477;-78
2022/12/26 05:46:34;;;;;;;19.30;8.87;;;8.20;90.10;;;;;;6152359;23;20522;-77
2022/12/26 05:49:04;;;;;;;15.17;8.90;;;8.10;90.00;;;;;;6146503;23;20247;-77
2022/12/26 05:51:33;;;;;;;16.50;9.13;;;8.10;90.00;;;;;;6145172;23;20180;-77
2022/12/26 05:54:01;;;;;;;15.80;9.17;;;8.10;89.90;;;;;;6151508;23;20176;-77
2022/12/26 05:56:29;;;;;;;19.83;9.83;;;8.10;89.90;;;;;;6146843;23;20176;-77
2022/12/26 05:58:59;;;;;;;18.87;10.13;;;8.00;89.90;;;;;;6147849;23;20254;-76
2022/12/26 06:01:29;;;;;;;17.37;9.70;;;8.00;89.90;;;;;;6144729;23;20207;-77
2022/12/26 06:03:59;;;;;;;21.17;9.57;;;8.00;89.90;;;;;;6147397;23;20168;-77
2022/12/26 06:06:29;;;;;;;21.33;10.27;;;8.00;89.80;;;;;;6149390;23;20642;-77
2022/12/26 06:08:58;;;;;;;16.17;8.80;;;8.00;89.80;;;;;;6150611;23;20172;-77
2022/12/26 06:11:27;;;;;;;15.27;9.73;;;8.00;89.70;;;;;;6152174;23;20183;-77
2022/12/26 06:13:55;;;;;;;19.63;11.02;;;7.90;89.50;;;;;;6150139;23;20454;-76
2022/12/26 06:16:24;;;;;;;19.77;9.80;;;7.90;89.70;;;;;;6151315;23;20176;-77
2022/12/26 06:18:54;;;;;;;20.23;10.50;;;7.90;89.70;;;;;;6151512;23;20672;-78
2022/12/26 06:21:23;;;;;;;17.00;10.40;;;7.90;89.60;;;;;;6149851;23;20172;-77
2022/12/26 06:23:52;;;;;;;18.60;10.77;;;7.90;89.60;;;;;;6149602;23;20255;-76
2022/12/26 06:26:21;;;;;;;20.65;12.40;;;7.90;89.60;;;;;;6151760;23;20445;-77
2022/12/26 06:28:49;;;;;;;17.90;10.77;;;7.90;89.80;;;;;;6151494;23;20251;-77
2022/12/26 06:31:19;;;;;;;19.13;10.83;;;7.90;89.80;;;;;;6152335;23;20230;-77
2022/12/26 06:33:50;;;;;;;18.63;10.40;;;7.80;89.80;;;;;;6149306;23;20161;-77
2022/12/26 06:36:20;;;;;;;20.00;11.17;;;7.90;89.80;;;;;;6150915;23;20603;-77
2022/12/26 06:38:50;;;;;;;20.08;12.20;;;7.90;89.90;;;;;;6147365;23;20410;-80
2022/12/26 06:41:22;;;;;;;20.97;11.60;;;7.90;90.00;;;;;;6147589;23;20177;-76
2022/12/26 06:43:50;;;;;;;24.47;10.77;;;7.90;90.00;;;;;;6150742;23;20245;-77
2022/12/26 06:46:21;;;;;;;18.47;11.23;;;7.90;90.00;;;;;;6151313;23;20176;-78
2022/12/26 06:48:49;;;;;;;21.47;11.87;;;7.90;90.00;;;;;;6146094;23;20164;-77
2022/12/26 06:51:19;;;;;;;26.75;13.25;;;8.00;90.00;;;;;;6147587;23;20387;-77
2022/12/26 06:54:01;;;;;;;22.97;12.77;;;8.00;90.10;;;;;;6149049;23;20215;-79
2022/12/26 06:56:33;;;;;;;21.37;12.17;;;8.00;90.20;;;;;;6151144;23;20179;-77
2022/12/26 06:59:03;;;;;;;22.30;12.20;;;8.00;90.10;;;;;;6150716;23;20525;-78
2022/12/26 07:01:34;;;;;;;24.77;13.20;;;8.00;90.10;;;;;;6151543;23;20830;-77
2022/12/26 07:04:03;;;;;;;25.47;13.80;;;8.10;90.20;;;;;;6153869;23;20468;-78
2022/12/26 07:06:33;;;;;;;22.83;12.73;;;8.10;90.20;;;;;;6150098;23;20172;-78
2022/12/26 07:09:03;;;;;;;28.10;12.53;;;8.10;90.20;;;;;;6150964;23;20548;-78
2022/12/26 07:11:35;;;;;;;24.93;14.00;;;8.20;90.20;;;;;;6149704;23;20471;-78
2022/12/26 07:14:04;;;;;;;25.47;12.87;;;8.30;90.30;;;;;;6149322;23;20168;-78
2022/12/26 07:16:34;;;;;;;26.27;14.57;;;8.40;90.30;;;;;;6149196;23;20224;-77
2022/12/26 07:19:02;;;;;;;27.83;17.03;;;8.40;90.30;;;;;;6151646;23;20304;-77
2022/12/26 07:21:31;;;;;;;38.13;19.73;;;8.60;90.30;;;;;;6152155;23;20175;-77
2022/12/26 07:24:13;;;;;;;34.60;18.23;;;8.60;90.30;;;;;;6152597;23;20231;-77
2022/12/26 07:26:43;;;;;;;30.93;17.50;;;8.70;90.40;;;;;;6150471;23;20271;-77
2022/12/26 07:29:15;;;;;;;33.63;19.13;;;8.90;90.40;;;;;;6149496;23;20383;-77
2022/12/26 07:31:43;;;;;;;32.20;16.17;;;8.90;90.50;;;;;;6148090;23;20165;-78
2022/12/26 07:34:12;;;;;;;29.60;16.23;;;9.00;90.50;;;;;;6148583;23;20179;-78
2022/12/26 07:36:41;;;;;;;27.30;15.90;;;9.00;90.50;;;;;;6151522;23;20176;-78
2022/12/26 07:39:09;;;;;;;29.77;16.33;;;9.10;90.40;;;;;;6154050;23;20247;-77
2022/12/26 07:44:25;;;;;;;31.38;18.02;;;9.10;90.20;;;;;;6153021;23;20397;-77
2022/12/26 07:46:54;;;;;;;25.00;13.67;;;9.20;90.20;;;;;;6153346;23;20533;-77
2022/12/26 07:49:23;;;;;;;24.37;15.37;;;9.20;90.10;;;;;;6149508;23;20176;-78
2022/12/26 07:51:52;;;;;;;24.10;15.17;;;9.20;90.00;;;;;;6149080;23;20712;-78
2022/12/26 07:54:20;;;;;;;24.77;14.80;;;9.30;90.00;;;;;;6153914;23;20172;-79
2022/12/26 07:56:49;;;;;;;26.33;15.30;;;9.30;89.90;;;;;;6146007;23;20233;-75
2022/12/26 07:59:18;;;;;;;28.37;15.43;;;9.30;89.80;;;;;;6152371;23;21048;-79
2022/12/26 08:01:48;;;;;;;27.07;16.43;;;9.30;89.60;;;;;;6149024;23;20177;-77
2022/12/26 08:04:16;;;;;;;22.63;14.63;;;9.40;89.70;;;;;;6148394;23;21129;-77
2022/12/26 08:06:47;;;;;;;28.73;16.77;;;9.40;89.60;;;;;;6144687;23;20192;-78
2022/12/26 08:09:16;;;;;;;32.17;16.90;;;9.50;89.70;;;;;;6146639;23;20224;-77
2022/12/26 08:11:45;;;;;;;32.83;17.83;;;9.50;89.60;;;;;;6150770;23;20175;-78
2022/12/26 08:14:15;;;;;;;34.07;19.57;;;9.60;89.40;;;;;;6150788;23;20169;-78
2022/12/26 08:16:44;;;;;;;31.63;18.07;;;9.60;89.30;;;;;;6151958;23;20166;-79
2022/12/26 08:19:21;;;;;;;38.77;20.90;;;9.60;89.10;;;;;;6150010;23;20207;-78
2022/12/26 08:21:49;;;;;;;37.33;20.03;;;9.70;89.10;;;;;;6149331;23;20177;-77
2022/12/26 08:24:18;;;;;;;39.60;23.13;;;9.70;89.00;;;;;;6147530;23;20382;-79
2022/12/26 08:26:46;;;;;;;37.97;19.73;;;9.70;89.40;;;;;;6150636;23;20219;-78
2022/12/26 08:29:14;;;;;;;40.47;21.20;;;9.80;89.40;;;;;;6152074;23;20173;-78
2022/12/26 08:31:43;;;;;;;37.20;21.90;;;9.80;89.20;;;;;;6144135;23;20180;-78
2022/12/26 08:34:38;;;;;;;33.57;19.10;;;9.80;89.30;;;;;;6148472;23;20224;-78
2022/12/26 08:38:13;;;;;;;31.70;17.47;;;9.90;89.40;;;;;;6136948;23;20219;-79
2022/12/26 08:40:43;;;;;;;31.30;16.97;;;10.00;89.50;;;;;;6144955;23;20194;-79
2022/12/26 08:43:12;;;;;;;28.27;16.93;;;10.00;89.30;;;;;;6145684;23;20251;-78
2022/12/26 08:46:02;;;;;;;28.93;16.43;;;10.00;89.20;;;;;;6148679;23;20252;-79
2022/12/26 08:48:31;;;;;;;25.60;15.73;;;10.10;88.80;;;;;;6151215;23;20172;-80
2022/12/26 08:51:01;;;;;;;29.23;15.83;;;10.10;88.80;;;;;;6148878;23;20184;-79
2022/12/26 08:53:34;;;;;;;28.63;16.23;;;10.20;88.90;;;;;;6151181;23;20176;-79
2022/12/26 08:56:06;;;;;;;28.37;16.43;;;10.20;88.80;;;;;;6149943;23;20192;-79
2022/12/26 08:58:34;;;;;;;29.37;15.83;;;10.30;88.80;;;;;;6151789;23;20161;-79
2022/12/26 09:01:07;;;;;;;26.57;15.93;;;10.30;88.30;;;;;;6149831;23;20204;-79
2022/12/26 09:03:36;;;;;;;26.60;15.67;;;10.40;88.50;;;;;;6152070;23;20164;-79
2022/12/26 09:06:04;;;;;;;28.90;15.33;;;10.40;88.30;;;;;;6151184;23;20176;-79
2022/12/26 09:08:35;;;;;;;21.30;11.87;;;10.50;88.50;;;;;;6151733;23;20183;-78
2022/12/26 09:11:06;;;;;;;13.60;8.97;;;10.60;88.40;;;;;;6152386;23;20234;-79
2022/12/26 09:13:35;;;;;;;14.20;8.43;;;10.70;88.50;;;;;;6152922;23;20212;-78
2022/12/26 09:16:09;;;;;;;16.93;9.53;;;10.80;88.30;;;;;;6150249;23;20173;-79
2022/12/26 09:18:37;;;;;;;17.57;8.80;;;10.90;87.40;;;;;;6151264;23;20867;-78
2022/12/26 09:21:08;;;;;;;14.53;8.30;;;11.00;87.10;;;;;;6151387;23;20196;-80
2022/12/26 09:23:37;;;;;;;17.23;8.83;;;11.10;87.40;;;;;;6150543;23;20219;-77
2022/12/26 09:26:09;;;;;;;13.33;8.40;;;11.10;87.40;;;;;;6151766;23;20173;-79
2022/12/26 09:28:38;;;;;;;10.57;6.30;;;11.20;86.70;;;;;;6151910;23;20211;-79
2022/12/26 09:31:10;;;;;;;7.23;3.53;;;11.30;86.50;;;;;;6148396;23;20172;-79
2022/12/26 09:33:39;;;;;;;6.20;3.40;;;11.30;84.30;;;;;;6152148;23;20161;-78
2022/12/26 09:36:10;;;;;;;6.53;3.90;;;11.30;83.70;;;;;;6151652;23;20196;-79
2022/12/26 09:38:42;;;;;;;7.20;4.27;;;11.40;83.90;;;;;;6150890;23;20164;-78
2022/12/26 09:41:37;;;;;;;8.37;3.90;;;11.50;84.00;;;;;;6152102;23;20200;-79
2022/12/26 09:44:15;;;;;;;8.67;4.07;;;11.60;84.10;;;;;;6153457;23;20157;-78
2022/12/26 09:46:52;;;;;;;8.37;4.53;;;11.60;82.70;;;;;;6152153;23;20610;-79
2022/12/26 09:49:24;;;;;;;8.10;4.30;;;11.70;83.50;;;;;;6150331;23;20236;-79
2022/12/26 09:51:56;;;;;;;8.00;5.10;;;11.80;83.00;;;;;;6150467;23;20437;-79
2022/12/26 09:54:31;;;;;;;8.97;5.00;;;11.90;82.80;;;;;;6151718;23;20192;-78
2022/12/26 09:57:04;;;;;;;9.97;5.03;;;11.90;83.30;;;;;;6147925;23;20160;-80
2022/12/26 09:59:47;;;;;;;8.40;4.70;;;12.00;82.70;;;;;;6151143;23;20639;-78
2022/12/26 10:02:21;;;;;;;6.70;4.20;;;12.00;81.30;;;;;;6150173;23;20208;-79
2022/12/26 10:04:50;;;;;;;8.90;4.40;;;12.10;81.50;;;;;;6152802;23;20632;-79
2022/12/26 10:07:25;;;;;;;8.97;4.77;;;12.20;81.70;;;;;;6151106;23;20203;-78
2022/12/26 10:10:04;;;;;;;12.37;5.10;;;12.30;81.70;;;;;;6150593;23;20171;-79
2022/12/26 10:12:55;;;;;;;9.70;5.00;;;12.30;82.00;;;;;;6151124;23;20590;-79
2022/12/26 10:15:43;;;;;;;8.57;5.00;;;12.40;82.00;;;;;;6149627;23;20621;-79
2022/12/26 10:18:33;;;;;;;7.77;4.63;;;12.50;81.70;;;;;;6148432;23;20512;-78
2022/12/26 10:21:18;;;;;;;8.23;4.67;;;12.50;80.20;;;;;;6151201;23;20189;-79
2022/12/26 10:23:49;;;;;;;7.47;4.33;;;12.60;80.50;;;;;;6152054;23;20515;-79
2022/12/26 10:26:21;;;;;;;9.33;5.27;;;12.60;80.30;;;;;;6149321;23;20215;-79
2022/12/26 10:28:57;;;;;;;7.87;4.60;;;12.70;80.60;;;;;;6150460;23;20531;-79
2022/12/26 10:31:29;;;;;;;7.37;4.67;;;12.80;80.30;;;;;;6151363;23;20156;-79
2022/12/26 10:34:07;;;;;;;7.13;4.73;;;12.80;80.00;;;;;;6151595;23;20164;-79
2022/12/26 10:36:41;;;;;;;7.77;4.87;;;12.90;80.30;;;;;;6150105;23;20165;-79
2022/12/26 10:39:22;;;;;;;12.17;5.53;;;12.90;79.30;;;;;;6143405;23;20165;-80
2022/12/26 10:41:53;;;;;;;13.00;5.67;;;12.90;78.80;;;;;;6149497;23;20192;-80
2022/12/26 10:44:23;;;;;;;9.57;5.00;;;13.00;79.10;;;;;;6147110;23;20603;-80
2022/12/26 10:47:18;;;;;;;9.23;5.43;;;13.00;78.70;;;;;;6150832;23;20421;-81
2022/12/26 10:49:48;;;;;;;9.90;5.10;;;13.00;78.20;;;;;;6146699;23;20165;-80
2022/12/26 10:52:20;;;;;;;11.93;5.17;;;13.10;78.00;;;;;;6145418;23;20203;-80
2022/12/26 10:54:54;;;;;;;9.60;5.27;;;13.10;77.50;;;;;;6153535;23;20157;-80
2022/12/26 10:57:44;;;;;;;7.50;4.80;;;13.10;77.80;;;;;;6152864;23;20164;-80
2022/12/26 11:00:20;;;;;;;9.95;5.90;;;13.20;77.70;;;;;;6148643;23;20955;-80
2022/12/26 11:03:04;;;;;;;8.43;4.47;;;13.20;77.80;;;;;;6152977;23;20593;-79
2022/12/26 11:05:33;;;;;;;11.43;5.63;;;13.30;77.40;;;;;;6151699;23;20165;-79
2022/12/26 11:08:26;;;;;;;11.53;5.23;;;13.30;77.50;;;;;;6144959;23;20207;-80
2022/12/26 11:11:06;;;;;;;10.77;5.77;;;13.40;77.80;;;;;;6148385;23;20236;-79
2022/12/26 11:13:39;;;;;;;10.93;5.13;;;13.40;78.20;;;;;;6151863;23;20539;-80
2022/12/26 11:16:10;;;;;;;12.00;5.60;;;13.40;78.20;;;;;;6147400;23;20172;-80
2022/12/26 11:18:47;;;;;;;12.57;5.70;;;13.40;78.30;;;;;;6146022;23;20188;-80
2022/12/26 11:21:22;;;;;;;8.77;5.63;;;13.50;78.80;;;;;;6147622;23;20188;-79
2022/12/26 11:23:52;;;;;;;9.63;5.20;;;13.50;78.90;;;;;;6153368;23;20160;-78
2022/12/26 11:26:41;;;;;;;10.57;5.13;;;13.50;79.60;;;;;;6149613;23;20180;-81
2022/12/26 11:29:24;;;;;;;10.13;5.80;;;13.50;79.20;;;;;;6150857;23;20219;-81
2022/12/26 11:32:00;;;;;;;9.57;5.40;;;13.50;79.40;;;;;;6152856;23;20156;-79
2022/12/26 11:34:33;;;;;;;12.17;5.77;;;13.50;79.30;;;;;;6151210;23;20661;-77
2022/12/26 11:37:02;;;;;;;11.37;5.77;;;13.60;79.40;;;;;;6144821;23;20252;-79
2022/12/26 11:39:33;;;;;;;9.80;5.33;;;13.60;79.60;;;;;;6147045;23;20172;-79
2022/12/26 11:42:08;;;;;;;12.63;6.27;;;13.50;79.00;;;;;;6151985;23;20708;-79
2022/12/26 11:44:40;;;;;;;10.23;6.00;;;13.60;79.30;;;;;;6154764;23;20160;-79
2022/12/26 11:47:13;;;;;;;14.93;7.40;;;13.60;79.40;;;;;;6152892;23;20192;-80
2022/12/26 11:49:49;;;;;;;11.73;6.10;;;13.60;78.90;;;;;;6149964;23;20489;-79
2022/12/26 11:52:36;;;;;;;9.83;5.80;;;13.60;78.90;;;;;;6151778;23;20178;-79
2022/12/26 11:55:30;;;;;;;12.02;6.72;;;13.60;79.00;;;;;;6151813;23;20390;-79
2022/12/26 11:58:00;;;;;;;9.60;5.80;;;13.60;79.20;;;;;;6148262;23;20234;-79
2022/12/26 12:00:29;;;;;;;11.60;5.87;;;13.70;79.40;;;;;;6150838;23;20725;-79
2022/12/26 12:02:59;;;;;;;12.07;5.87;;;13.70;79.50;;;;;;6150886;23;20204;-79
2022/12/26 12:05:40;;;;;;;13.40;5.87;;;13.70;79.70;;;;;;6147247;23;20205;-79
2022/12/26 12:08:26;;;;;;;11.37;6.53;;;13.80;79.70;;;;;;6147830;23;20160;-81
2022/12/26 12:11:22;;;;;;;10.20;5.57;;;13.80;80.00;;;;;;6147567;23;20179;-80
2022/12/26 12:14:14;;;;;;;11.67;5.70;;;13.80;79.80;;;;;;6152238;23;20492;-80
2022/12/26 12:16:56;;;;;;;12.73;7.17;;;13.90;79.70;;;;;;6153124;23;20192;-79
2022/12/26 12:19:37;;;;;;;11.13;6.68;;;13.90;79.70;;;;;;6149286;23;20391;-80
2022/12/26 12:22:23;;;;;;;14.80;6.33;;;13.90;79.60;;;;;;6152308;23;20181;-80
2022/12/26 12:25:08;;;;;;;13.77;6.03;;;14.00;79.30;;;;;;6152707;23;20156;-79
2022/12/26 12:27:42;;;;;;;9.20;5.23;;;14.00;79.30;;;;;;6150881;23;20161;-78
2022/12/26 12:30:18;;;;;;;10.03;5.90;;;14.00;78.90;;;;;;6148996;23;20165;-79
2022/12/26 12:33:10;;;;;;;10.80;5.90;;;14.00;78.90;;;;;;6143902;23;20152;-79
2022/12/26 12:35:53;;;;;;;12.33;6.10;;;14.10;79.20;;;;;;6148053;23;20174;-79
2022/12/26 12:38:34;;;;;;;13.87;7.00;;;14.10;79.20;;;;;;6149190;23;20168;-80
2022/12/26 12:41:34;;;;;;;10.97;6.00;;;14.20;79.30;;;;;;6151107;23;20161;-80
2022/12/26 12:44:07;;;;;;;11.17;5.70;;;14.20;79.10;;;;;;6151282;23;20160;-79
2022/12/26 12:46:45;;;;;;;11.27;5.60;;;14.20;78.90;;;;;;6149293;23;20221;-78
2022/12/26 12:49:27;;;;;;;14.13;7.33;;;14.20;78.60;;;;;;6148726;23;20537;-80
2022/12/26 12:52:05;;;;;;;14.53;7.80;;;14.20;78.60;;;;;;6150230;23;20208;-80
2022/12/26 12:54:57;;;;;;;10.80;5.40;;;14.30;78.60;;;;;;6150279;23;20544;-79
2022/12/26 12:57:33;;;;;;;17.73;8.30;;;14.30;78.80;;;;;;6151211;23;20160;-79
2022/12/26 13:00:14;;;;;;;17.33;7.27;;;14.30;79.30;;;;;;6149834;23;20255;-79
2022/12/26 13:02:47;;;;;;;11.13;6.07;;;14.40;79.20;;;;;;6150113;23;20180;-80
2022/12/26 13:05:22;;;;;;;9.80;6.30;;;14.50;79.00;;;;;;6151037;23;20161;-81
2022/12/26 13:07:57;;;;;;;12.50;6.10;;;14.70;79.40;;;;;;6149270;23;20707;-80
2022/12/26 13:10:29;;;;;;;11.57;5.87;;;14.80;78.70;;;;;;6149006;23;20637;-78
2022/12/26 13:12:59;;;;;;;13.77;7.18;;;14.90;78.30;;;;;;6149504;23;20387;-80
2022/12/26 13:15:35;;;;;;;13.60;6.77;;;15.10;78.30;;;;;;6151197;23;20181;-79
2022/12/26 13:18:10;;;;;;;13.63;7.07;;;15.20;78.40;;;;;;6148761;23;20664;-80
2022/12/26 13:20:42;;;;;;;11.43;5.90;;;15.30;77.20;;;;;;6149157;23;20164;-81
2022/12/26 13:26:19;;;;;;;11.60;6.30;;;15.40;74.70;;;;;;6149074;23;20247;-79
2022/12/26 13:28:58;;;;;;;17.93;6.73;;;15.70;74.70;;;;;;6151323;23;20211;-80
2022/12/26 13:31:33;;;;;;;12.53;6.93;;;16.40;73.30;;;;;;6147108;23;20215;-79
2022/12/26 13:34:03;;;;;;;11.50;6.57;;;17.40;71.50;;;;;;6146305;23;20161;-81
2022/12/26 13:36:43;;;;;;;9.30;5.80;;;19.60;67.90;;;;;;6145735;23;20627;-81
2022/12/26 13:39:36;;;;;;;14.45;6.25;;;20.60;61.70;;;;;;6151037;23;20230;-80
2022/12/26 13:45:55;;;;;;;16.48;7.75;;;20.00;60.50;;;;;;6147509;23;20630;-80
2022/12/26 13:48:54;;;;;;;17.25;7.43;;;19.50;61.90;;;;;;6148366;23;20587;-79
2022/12/26 13:51:46;;;;;;;14.10;7.80;;;19.50;61.30;;;;;;6149050;23;20160;-78
2022/12/26 13:54:16;;;;;;;13.52;8.63;;;19.20;62.20;;;;;;6150634;23;20163;-79
2022/12/26 13:57:10;;;;;;;11.52;6.85;;;19.40;61.40;;;;;;6149547;23;20180;-79
2022/12/26 13:59:44;;;;;;;16.42;7.78;;;19.50;61.20;;;;;;6149457;23;20161;-79
2022/12/26 14:02:31;;;;;;;14.75;7.68;;;19.30;61.70;;;;;;6149444;23;20177;-80
2022/12/26 14:05:30;;;;;;;15.10;7.25;;;19.60;60.80;;;;;;6151651;23;20519;-80
2022/12/26 14:08:05;;;;;;;14.23;7.80;;;19.30;60.70;;;;;;6149406;23;20215;-78
2022/12/26 14:10:42;;;;;;;20.37;8.97;;;18.80;61.10;;;;;;6148037;23;20160;-80
2022/12/26 14:13:33;;;;;;;16.07;6.73;;;18.20;62.40;;;;;;6150395;23;20153;-78
2022/12/26 14:16:08;;;;;;;15.20;6.83;;;17.60;63.70;;;;;;6150114;23;20164;-79
2022/12/26 14:18:45;;;;;;;18.27;7.53;;;17.20;64.80;;;;;;6146709;23;20183;-78
2022/12/26 14:21:36;;;;;;;21.43;8.63;;;16.80;65.90;;;;;;6148675;23;20629;-79
2022/12/26 14:24:18;;;;;;;23.93;9.40;;;16.50;66.90;;;;;;6154334;23;20177;-80
2022/12/26 14:26:56;;;;;;;21.13;9.13;;;16.20;67.80;;;;;;6146866;23;20223;-79
2022/12/26 14:29:31;;;;;;;18.57;8.97;;;15.90;68.70;;;;;;6148831;23;20160;-79
2022/12/26 14:32:15;;;;;;;14.47;8.13;;;15.60;69.80;;;;;;6151384;23;20160;-78
2022/12/26 14:34:57;;;;;;;20.10;7.67;;;15.40;70.70;;;;;;6151550;23;20208;-79
2022/12/26 14:37:35;;;;;;;18.90;8.37;;;15.20;71.10;;;;;;6153798;23;20161;-80
2022/12/26 14:40:18;;;;;;;21.57;10.27;;;15.00;72.10;;;;;;6153462;23;20223;-78
2022/12/26 14:43:13;;;;;;;18.93;8.30;;;14.80;73.00;;;;;;6152252;23;20177;-79
2022/12/26 14:45:49;;;;;;;21.70;9.80;;;14.60;73.60;;;;;;6125580;23;20212;-79
2022/12/26 14:48:51;;;;;;;17.03;9.60;;;14.40;74.20;;;;;;6152594;23;20157;-79
2022/12/26 14:51:32;;;;;;;18.17;10.00;;;14.20;74.80;;;;;;6152828;23;20226;-79
2022/12/26 14:54:36;;;;;;;15.20;8.73;;;14.10;75.30;;;;;;6154419;23;20157;-78
2022/12/26 14:57:43;;;;;;;20.57;9.60;;;13.90;76.10;;;;;;6152552;23;20156;-79
2022/12/26 15:00:24;;;;;;;20.27;9.67;;;13.80;76.40;;;;;;6148126;23;20208;-79
2022/12/26 15:07:21;;;;;;;21.20;10.97;;;13.50;78.30;;;;;;6118902;23;20700;-78
2022/12/26 15:10:32;;;;;;;19.47;11.33;;;13.30;79.10;;;;;;6129836;23;20180;-79
2022/12/26 15:13:42;;;;;;;20.50;10.53;;;13.20;79.70;;;;;;6125535;23;20176;-78
2022/12/26 15:16:23;;;;;;;19.23;10.77;;;13.00;80.50;;;;;;6150046;23;20704;-78
2022/12/26 15:19:41;;;;;;;20.93;9.37;;;13.00;81.00;;;;;;6152967;23;20202;-79
2022/12/26 15:22:51;;;;;;;20.33;9.90;;;12.80;81.80;;;;;;6151842;23;20165;-78
2022/12/26 15:26:03;;;;;;;20.83;10.15;;;12.70;82.50;;;;;;6153169;23;20390;-79
2022/12/26 15:28:54;;;;;;;22.87;10.57;;;12.60;83.60;;;;;;6152254;23;20165;-80
2022/12/26 15:31:45;;;;;;;26.57;11.80;;;12.50;83.60;;;;;;6150777;23;20160;-79
2022/12/26 15:34:55;;;;;;;21.53;10.43;;;12.50;83.60;;;;;;6153750;23;20591;-79
2022/12/26 15:37:38;;;;;;;20.27;10.80;;;12.40;84.50;;;;;;6150498;23;20235;-79